createdAt,value
2018-12-25T00:00:11.384Z,8.00
2018-12-25T00:01:11.376Z,8.00
2018-12-25T00:02:11.368Z,8.00
2018-12-25T00:03:11.355Z,8.00
2018-12-25T00:04:11.348Z,8.00
2018-12-25T00:05:11.338Z,8.00
2018-12-25T00:06:11.331Z,8.00
2018-12-25T00:07:11.319Z,8.00
2018-12-25T00:08:11.311Z,8.00
2018-12-25T00:09:11.304Z,8.00
2018-12-25T00:10:11.292Z,8.00
2018-12-25T00:11:11.283Z,8.00
2018-12-25T00:12:11.276Z,8.00
2018-12-25T00:13:11.267Z,8.00
2018-12-25T00:14:11.257Z,8.00
2018-12-25T00:15:11.242Z,8.00
2018-12-25T00:16:11.236Z,8.00
2018-12-25T00:17:11.229Z,8.00
2018-12-25T00:18:11.220Z,8.00
2018-12-25T00:19:11.214Z,8.00
2018-12-25T00:20:11.199Z,8.00
2018-12-25T00:21:11.193Z,8.00
2018-12-25T00:22:11.183Z,8.00
2018-12-25T00:23:11.211Z,8.00
2018-12-25T00:24:11.164Z,8.00
2018-12-25T00:25:11.152Z,8.00
2018-12-25T00:26:11.143Z,8.00
2018-12-25T00:27:11.238Z,8.00
2018-12-25T00:28:11.124Z,8.00
2018-12-25T00:29:11.116Z,8.00
2018-12-25T00:30:11.112Z,8.00
2018-12-25T00:31:11.094Z,8.00
2018-12-25T00:32:11.088Z,8.00
2018-12-25T00:33:11.078Z,8.00
2018-12-25T00:34:11.068Z,8.00
2018-12-25T00:35:11.059Z,8.00
2018-12-25T00:36:11.052Z,8.00
2018-12-25T00:37:11.043Z,8.00
2018-12-25T00:38:11.036Z,8.00
2018-12-25T00:39:11.029Z,8.00
2018-12-25T00:40:11.013Z,8.00
2018-12-25T00:41:11.007Z,8.00
2018-12-25T00:42:10.992Z,8.00
2018-12-25T00:43:10.982Z,8.00
2018-12-25T00:44:10.980Z,8.00
2018-12-25T00:45:10.967Z,8.00
2018-12-25T00:46:10.954Z,8.00
2018-12-25T00:47:11.032Z,8.00
2018-12-25T00:48:10.936Z,8.00
2018-12-25T00:49:14.767Z,8.00
2018-12-25T00:50:10.917Z,8.00
2018-12-25T00:51:10.908Z,8.00
2018-12-25T00:52:10.900Z,8.00
2018-12-25T00:53:10.889Z,8.00
2018-12-25T00:54:10.880Z,8.00
2018-12-25T00:55:10.875Z,8.00
2018-12-25T00:56:10.861Z,8.00
2018-12-25T00:57:10.852Z,8.00
2018-12-25T00:58:10.845Z,8.00
2018-12-25T00:59:10.833Z,8.00
2018-12-25T01:00:10.826Z,8.00
2018-12-25T01:01:10.817Z,8.00
2018-12-25T01:02:10.808Z,8.00
2018-12-25T01:03:10.798Z,8.00
2018-12-25T01:04:10.787Z,8.00
2018-12-25T01:05:10.780Z,8.00
2018-12-25T01:06:10.770Z,8.00
2018-12-25T01:07:10.762Z,8.00
2018-12-25T01:08:10.750Z,8.00
2018-12-25T01:09:10.742Z,8.00
2018-12-25T01:10:10.735Z,8.00
2018-12-25T01:11:10.724Z,8.00
2018-12-25T01:12:10.722Z,8.00
2018-12-25T01:13:10.706Z,8.00
2018-12-25T01:14:10.696Z,8.00
2018-12-25T01:15:10.687Z,8.00
2018-12-25T01:16:10.678Z,8.00
2018-12-25T01:17:10.669Z,8.00
2018-12-25T01:18:10.658Z,8.00
2018-12-25T01:19:10.650Z,8.00
2018-12-25T01:20:10.639Z,8.00
2018-12-25T01:21:10.628Z,8.00
2018-12-25T01:22:10.620Z,8.00
2018-12-25T01:23:10.613Z,8.00
2018-12-25T01:24:10.601Z,8.00
2018-12-25T01:25:10.619Z,8.00
2018-12-25T01:26:10.585Z,8.00
2018-12-25T01:27:10.576Z,8.00
2018-12-25T01:28:10.668Z,8.00
2018-12-25T01:29:10.566Z,8.00
2018-12-25T01:30:10.547Z,8.00
2018-12-25T01:31:10.539Z,8.00
2018-12-25T01:32:10.529Z,8.00
2018-12-25T01:33:10.524Z,8.00
2018-12-25T01:34:10.510Z,8.00
2018-12-25T01:35:10.501Z,8.00
2018-12-25T01:36:10.496Z,8.00
2018-12-25T01:37:10.485Z,8.00
2018-12-25T01:38:10.480Z,8.00
2018-12-25T01:39:10.466Z,8.00
2018-12-25T01:40:10.457Z,8.00
2018-12-25T01:41:10.446Z,8.00
2018-12-25T01:42:10.436Z,8.00
2018-12-25T01:43:10.429Z,8.00
2018-12-25T01:44:10.423Z,8.00
2018-12-25T01:45:10.416Z,8.00
2018-12-25T01:46:10.400Z,8.00
2018-12-25T01:47:10.393Z,8.00
2018-12-25T01:48:10.383Z,8.00
2018-12-25T01:49:10.375Z,8.00
2018-12-25T01:50:10.367Z,8.00
2018-12-25T01:51:10.358Z,8.00
2018-12-25T01:52:10.347Z,8.00
2018-12-25T01:53:10.337Z,8.00
2018-12-25T01:54:10.328Z,8.00
2018-12-25T01:55:10.319Z,8.00
2018-12-25T01:56:10.309Z,8.00
2018-12-25T01:57:10.301Z,8.00
2018-12-25T01:58:10.291Z,8.00
2018-12-25T01:59:10.284Z,8.00
2018-12-25T02:00:10.274Z,8.00
2018-12-25T02:01:10.264Z,8.00
2018-12-25T02:02:10.254Z,8.00
2018-12-25T02:03:10.247Z,8.00
2018-12-25T02:04:10.241Z,8.00
2018-12-25T02:05:10.229Z,8.00
2018-12-25T02:06:10.219Z,8.00
2018-12-25T02:07:10.230Z,8.00
2018-12-25T02:08:10.204Z,8.00
2018-12-25T02:09:10.192Z,8.00
2018-12-25T02:10:10.183Z,8.00
2018-12-25T02:11:10.175Z,8.00
2018-12-25T02:12:10.180Z,8.00
2018-12-25T02:13:10.158Z,8.00
2018-12-25T02:14:10.154Z,8.00
2018-12-25T02:15:10.138Z,8.00
2018-12-25T02:16:10.130Z,8.00
2018-12-25T02:17:10.126Z,8.00
2018-12-25T02:18:10.113Z,8.00
2018-12-25T02:19:10.110Z,8.00
2018-12-25T02:20:10.096Z,8.00
2018-12-25T02:21:10.086Z,8.00
2018-12-25T02:22:10.077Z,8.00
2018-12-25T02:23:10.073Z,8.00
2018-12-25T02:24:10.058Z,8.00
2018-12-25T02:25:10.050Z,8.00
2018-12-25T02:26:10.040Z,8.00
2018-12-25T02:27:10.034Z,8.00
2018-12-25T02:28:10.023Z,8.00
2018-12-25T02:29:10.015Z,4.00
2018-12-25T02:30:10.005Z,4.00
2018-12-25T02:31:09.998Z,4.00
2018-12-25T02:32:09.988Z,4.00
2018-12-25T02:33:09.984Z,4.00
2018-12-25T02:34:09.970Z,4.00
2018-12-25T02:35:09.965Z,4.00
2018-12-25T02:36:09.956Z,4.00
2018-12-25T02:37:09.947Z,4.00
2018-12-25T02:38:09.936Z,4.00
2018-12-25T02:39:09.927Z,4.00
2018-12-25T02:40:09.919Z,4.00
2018-12-25T02:41:09.910Z,4.00
2018-12-25T02:42:09.898Z,4.00
2018-12-25T02:43:09.890Z,4.00
2018-12-25T02:44:09.902Z,4.00
2018-12-25T02:45:09.875Z,4.00
2018-12-25T02:46:09.862Z,4.00
2018-12-25T02:47:09.857Z,4.00
2018-12-25T02:48:09.853Z,4.00
2018-12-25T02:49:09.848Z,4.00
2018-12-25T02:50:09.832Z,4.00
2018-12-25T02:51:09.823Z,4.00
2018-12-25T02:52:09.813Z,4.00
2018-12-25T02:53:09.806Z,4.00
2018-12-25T02:54:09.793Z,4.00
2018-12-25T02:55:09.787Z,4.00
2018-12-25T02:56:09.773Z,4.00
2018-12-25T02:57:09.768Z,4.00
2018-12-25T02:58:09.759Z,4.00
2018-12-25T02:59:09.768Z,4.00
2018-12-25T03:00:09.742Z,4.00
2018-12-25T03:01:09.732Z,4.00
2018-12-25T03:02:09.725Z,4.00
2018-12-25T03:03:09.718Z,4.00
2018-12-25T03:04:09.704Z,4.00
2018-12-25T03:05:09.698Z,4.00
2018-12-25T03:06:09.688Z,4.00
2018-12-25T03:07:09.679Z,4.00
2018-12-25T03:08:09.671Z,4.00
2018-12-25T03:09:09.663Z,4.00
2018-12-25T03:10:09.651Z,4.00
2018-12-25T03:11:09.644Z,4.00
2018-12-25T03:12:09.633Z,4.00
2018-12-25T03:13:09.625Z,4.00
2018-12-25T03:14:09.617Z,4.00
2018-12-25T03:15:09.610Z,4.00
2018-12-25T03:16:09.598Z,4.00
2018-12-25T03:17:09.591Z,4.00
2018-12-25T03:18:09.582Z,4.00
2018-12-25T03:19:09.574Z,4.00
2018-12-25T03:20:09.576Z,4.00
2018-12-25T03:21:09.559Z,4.00
2018-12-25T03:22:09.542Z,4.00
2018-12-25T03:23:09.537Z,4.00
2018-12-25T03:24:09.529Z,4.00
2018-12-25T03:25:09.521Z,4.00
2018-12-25T03:26:09.510Z,4.00
2018-12-25T03:27:09.502Z,4.00
2018-12-25T03:28:09.493Z,4.00
2018-12-25T03:29:09.485Z,4.00
2018-12-25T03:30:09.490Z,4.00
2018-12-25T03:31:09.478Z,4.00
2018-12-25T03:32:09.479Z,4.00
2018-12-25T03:33:09.459Z,4.00
2018-12-25T03:34:09.452Z,4.00
2018-12-25T03:35:09.432Z,4.00
2018-12-25T03:36:09.429Z,4.00
2018-12-25T03:37:09.422Z,4.00
2018-12-25T03:38:09.404Z,4.00
2018-12-25T03:39:09.410Z,4.00
2018-12-25T03:40:09.397Z,4.00
2018-12-25T03:41:09.379Z,4.00
2018-12-25T03:42:09.379Z,4.00
2018-12-25T03:43:09.363Z,4.00
2018-12-25T03:44:09.350Z,4.00
2018-12-25T03:45:09.350Z,4.00
2018-12-25T03:46:09.336Z,4.00
2018-12-25T03:47:09.327Z,4.00
2018-12-25T03:48:09.319Z,4.00
2018-12-25T03:49:09.310Z,4.00
2018-12-25T03:50:10.918Z,4.00
2018-12-25T03:51:09.294Z,4.00
2018-12-25T03:52:09.288Z,4.00
2018-12-25T03:53:09.277Z,4.00
2018-12-25T03:54:09.264Z,4.00
2018-12-25T03:55:09.273Z,4.00
2018-12-25T03:56:09.252Z,4.00
2018-12-25T03:57:09.240Z,4.00
2018-12-25T03:58:09.226Z,4.00
2018-12-25T03:59:09.228Z,4.00
2018-12-25T04:00:09.211Z,4.00
2018-12-25T04:01:09.206Z,4.00
2018-12-25T04:02:09.199Z,4.00
2018-12-25T04:03:09.187Z,4.00
2018-12-25T04:04:09.179Z,4.00
2018-12-25T04:05:09.167Z,4.00
2018-12-25T04:06:09.159Z,4.00
2018-12-25T04:07:09.150Z,4.00
2018-12-25T04:08:09.150Z,4.00
2018-12-25T04:09:09.134Z,4.00
2018-12-25T04:10:09.122Z,4.00
2018-12-25T04:11:09.115Z,4.00
2018-12-25T04:12:09.105Z,4.00
2018-12-25T04:13:09.097Z,4.00
2018-12-25T04:14:09.091Z,4.00
2018-12-25T04:15:09.082Z,4.00
2018-12-25T04:16:09.073Z,4.00
2018-12-25T04:17:09.062Z,4.00
2018-12-25T04:18:36.728Z,4.00
2018-12-25T04:19:09.051Z,4.00
2018-12-25T04:20:09.037Z,4.00
2018-12-25T04:21:09.026Z,4.00
2018-12-25T04:22:09.020Z,4.00
2018-12-25T04:23:09.012Z,4.00
2018-12-25T04:24:09.002Z,4.00
2018-12-25T04:25:08.991Z,4.00
2018-12-25T04:26:08.983Z,4.00
2018-12-25T04:27:08.975Z,4.00
2018-12-25T04:28:08.967Z,4.00
2018-12-25T04:29:08.951Z,4.00
2018-12-25T04:30:08.946Z,4.00
2018-12-25T04:31:08.944Z,4.00
2018-12-25T04:32:08.934Z,4.00
2018-12-25T04:33:08.923Z,4.00
2018-12-25T04:34:08.914Z,4.00
2018-12-25T04:35:08.904Z,4.00
2018-12-25T04:36:08.896Z,4.00
2018-12-25T04:37:08.887Z,4.00
2018-12-25T04:38:08.878Z,4.00
2018-12-25T04:39:08.869Z,4.00
2018-12-25T04:40:08.864Z,4.00
2018-12-25T04:41:08.852Z,4.00
2018-12-25T04:42:08.845Z,4.00
2018-12-25T04:43:08.834Z,4.00
2018-12-25T04:44:08.829Z,4.00
2018-12-25T04:45:08.827Z,4.00
2018-12-25T04:46:08.808Z,4.00
2018-12-25T04:47:08.799Z,4.00
2018-12-25T04:48:08.792Z,4.00
2018-12-25T04:49:08.789Z,4.00
2018-12-25T04:50:08.777Z,4.00
2018-12-25T04:51:08.763Z,4.00
2018-12-25T04:52:08.763Z,4.00
2018-12-25T04:53:08.748Z,4.00
2018-12-25T04:54:08.739Z,4.00
2018-12-25T04:55:08.731Z,4.00
2018-12-25T04:56:08.720Z,4.00
2018-12-25T04:57:08.715Z,4.00
2018-12-25T04:58:08.703Z,4.00
2018-12-25T04:59:08.694Z,4.00
2018-12-25T05:00:08.687Z,4.00
2018-12-25T05:01:08.677Z,4.00
2018-12-25T05:02:08.670Z,4.00
2018-12-25T05:03:08.659Z,4.00
2018-12-25T05:04:08.652Z,4.00
2018-12-25T05:05:08.644Z,4.00
2018-12-25T05:06:08.636Z,4.00
2018-12-25T05:07:08.627Z,4.00
2018-12-25T05:08:08.617Z,4.00
2018-12-25T05:09:08.609Z,4.00
2018-12-25T05:10:08.605Z,4.00
2018-12-25T05:11:08.593Z,4.00
2018-12-25T05:12:08.582Z,4.00
2018-12-25T05:13:08.574Z,4.00
2018-12-25T05:14:08.566Z,4.00
2018-12-25T05:15:08.556Z,4.00
2018-12-25T05:16:08.549Z,4.00
2018-12-25T05:17:08.541Z,4.00
2018-12-25T05:18:08.530Z,4.00
2018-12-25T05:19:08.525Z,4.00
2018-12-25T05:20:08.518Z,4.00
2018-12-25T05:21:08.504Z,4.00
2018-12-25T05:22:08.498Z,4.00
2018-12-25T05:23:08.487Z,4.00
2018-12-25T05:24:08.477Z,4.00
2018-12-25T05:25:08.470Z,4.00
2018-12-25T05:26:08.460Z,4.00
2018-12-25T05:27:08.453Z,4.00
2018-12-25T05:28:08.443Z,4.00
2018-12-25T05:29:08.435Z,4.00
2018-12-25T05:30:08.426Z,4.00
2018-12-25T05:31:08.421Z,4.00
2018-12-25T05:32:08.409Z,4.00
2018-12-25T05:33:08.401Z,4.00
2018-12-25T05:34:08.395Z,4.00
2018-12-25T05:35:08.384Z,4.00
2018-12-25T05:36:08.376Z,4.00
2018-12-25T05:37:08.370Z,4.00
2018-12-25T05:38:08.361Z,4.00
2018-12-25T05:39:08.348Z,4.00
2018-12-25T05:40:08.342Z,4.00
2018-12-25T05:41:08.334Z,4.00
2018-12-25T05:42:08.323Z,4.00
2018-12-25T05:43:08.315Z,4.00
2018-12-25T05:44:08.307Z,4.00
2018-12-25T05:45:08.299Z,4.00
2018-12-25T05:46:08.290Z,4.00
2018-12-25T05:47:08.279Z,4.00
2018-12-25T05:48:08.274Z,4.00
2018-12-25T05:49:08.266Z,4.00
2018-12-25T05:50:08.255Z,4.00
2018-12-25T05:51:08.246Z,4.00
2018-12-25T05:52:08.238Z,4.00
2018-12-25T05:53:08.225Z,4.00
2018-12-25T05:54:08.226Z,4.00
2018-12-25T05:55:08.213Z,4.00
2018-12-25T05:56:08.202Z,4.00
2018-12-25T05:57:08.196Z,4.00
2018-12-25T05:58:08.188Z,4.00
2018-12-25T05:59:08.178Z,4.00
2018-12-25T06:00:08.168Z,4.00
2018-12-25T06:01:08.158Z,4.00
2018-12-25T06:02:08.156Z,4.00
2018-12-25T06:03:08.144Z,4.00
2018-12-25T06:04:08.137Z,4.00
2018-12-25T06:05:08.125Z,4.00
2018-12-25T06:06:08.117Z,4.00
2018-12-25T06:07:08.181Z,4.00
2018-12-25T06:08:08.100Z,4.00
2018-12-25T06:09:08.095Z,4.00
2018-12-25T06:10:08.076Z,4.00
2018-12-25T06:11:08.073Z,4.00
2018-12-25T06:12:08.066Z,4.00
2018-12-25T06:13:08.057Z,4.00
2018-12-25T06:14:08.051Z,4.00
2018-12-25T06:15:08.041Z,4.00
2018-12-25T06:16:08.029Z,4.00
2018-12-25T06:17:08.023Z,4.00
2018-12-25T06:18:08.015Z,4.00
2018-12-25T06:19:08.007Z,4.00
2018-12-25T06:20:07.997Z,4.00
2018-12-25T06:21:07.989Z,4.00
2018-12-25T06:22:07.980Z,4.00
2018-12-25T06:23:07.971Z,4.00
2018-12-25T06:24:07.964Z,4.00
2018-12-25T06:25:07.956Z,4.00
2018-12-25T06:26:07.946Z,4.00
2018-12-25T06:27:07.939Z,4.00
2018-12-25T06:28:07.930Z,4.00
2018-12-25T06:29:07.921Z,4.00
2018-12-25T06:30:07.912Z,4.00
2018-12-25T06:31:07.902Z,4.00
2018-12-25T06:32:07.896Z,4.00
2018-12-25T06:33:07.886Z,4.00
2018-12-25T06:34:07.877Z,4.00
2018-12-25T06:35:07.870Z,4.00
2018-12-25T06:36:07.860Z,4.00
2018-12-25T06:37:07.851Z,8.00
2018-12-25T06:38:07.846Z,8.00
2018-12-25T06:39:07.841Z,8.00
2018-12-25T06:40:07.825Z,8.00
2018-12-25T06:41:07.818Z,8.00
2018-12-25T06:42:07.809Z,8.00
2018-12-25T06:43:07.802Z,8.00
2018-12-25T06:44:07.790Z,8.00
2018-12-25T06:45:07.866Z,8.00
2018-12-25T06:46:07.775Z,8.00
2018-12-25T06:47:07.767Z,8.00
2018-12-25T06:48:07.758Z,8.00
2018-12-25T06:49:07.750Z,8.00
2018-12-25T06:50:07.743Z,8.00
2018-12-25T06:51:07.733Z,4.00
2018-12-25T06:52:07.727Z,4.00
2018-12-25T06:53:07.719Z,8.00
2018-12-25T06:54:07.710Z,8.00
2018-12-25T06:55:07.713Z,8.00
2018-12-25T06:56:07.696Z,12.00
2018-12-25T06:57:07.682Z,8.00
2018-12-25T06:58:07.677Z,8.00
2018-12-25T06:59:07.667Z,12.00
2018-12-25T07:00:07.655Z,8.00
2018-12-25T07:01:07.646Z,12.00
2018-12-25T07:02:07.638Z,8.00
2018-12-25T07:03:07.628Z,12.00
2018-12-25T07:04:07.628Z,8.00
2018-12-25T07:05:07.614Z,12.00
2018-12-25T07:06:07.605Z,12.00
2018-12-25T07:07:07.603Z,12.00
2018-12-25T07:08:07.592Z,16.00
2018-12-25T07:09:07.580Z,16.00
2018-12-25T07:10:07.570Z,16.00
2018-12-25T07:11:07.562Z,20.00
2018-12-25T07:12:07.554Z,16.00
2018-12-25T07:13:07.547Z,20.00
2018-12-25T07:14:07.534Z,20.00
2018-12-25T07:15:07.526Z,20.00
2018-12-25T07:16:07.521Z,24.00
2018-12-25T07:17:07.512Z,24.00
2018-12-25T07:18:07.503Z,28.00
2018-12-25T07:19:07.491Z,28.00
2018-12-25T07:20:07.490Z,32.00
2018-12-25T07:21:12.119Z,32.00
2018-12-25T07:22:07.467Z,36.00
2018-12-25T07:23:07.460Z,36.00
2018-12-25T07:24:07.452Z,32.00
2018-12-25T07:25:07.443Z,36.00
2018-12-25T07:26:07.431Z,36.00
2018-12-25T07:27:07.424Z,44.00
2018-12-25T07:28:07.417Z,48.00
2018-12-25T07:29:07.407Z,60.00
2018-12-25T07:30:07.400Z,64.00
2018-12-25T07:31:07.390Z,68.00
2018-12-25T07:32:07.383Z,76.00
2018-12-25T07:33:07.374Z,80.00
2018-12-25T07:34:07.414Z,76.00
2018-12-25T07:35:07.356Z,80.00
2018-12-25T07:36:09.439Z,72.00
2018-12-25T07:37:07.341Z,64.00
2018-12-25T07:38:07.332Z,68.00
2018-12-25T07:39:07.319Z,72.00
2018-12-25T07:40:07.318Z,92.00
2018-12-25T07:41:07.305Z,84.00
2018-12-25T07:42:07.527Z,84.00
2018-12-25T07:43:07.289Z,92.00
2018-12-25T07:44:07.279Z,88.00
2018-12-25T07:45:07.272Z,80.00
2018-12-25T07:46:07.263Z,80.00
2018-12-25T07:47:07.255Z,100.00
2018-12-25T07:48:07.247Z,136.00
2018-12-25T07:49:07.238Z,164.00
2018-12-25T07:50:07.229Z,176.00
2018-12-25T07:51:07.221Z,164.00
2018-12-25T07:52:07.213Z,156.00
2018-12-25T07:53:07.205Z,156.00
2018-12-25T07:54:07.192Z,148.00
2018-12-25T07:55:07.186Z,132.00
2018-12-25T07:56:07.177Z,112.00
2018-12-25T07:57:07.171Z,104.00
2018-12-25T07:58:07.163Z,104.00
2018-12-25T07:59:07.154Z,116.00
2018-12-25T08:00:07.146Z,132.00
2018-12-25T08:01:07.137Z,140.00
2018-12-25T08:02:07.126Z,156.00
2018-12-25T08:03:07.118Z,184.00
2018-12-25T08:04:07.112Z,168.00
2018-12-25T08:05:07.105Z,144.00
2018-12-25T08:06:07.094Z,168.00
2018-12-25T08:07:07.089Z,196.00
2018-12-25T08:08:07.087Z,248.00
2018-12-25T08:09:07.067Z,308.00
2018-12-25T08:10:07.061Z,332.00
2018-12-25T08:11:07.053Z,328.00
2018-12-25T08:12:07.043Z,332.00
2018-12-25T08:13:07.036Z,332.00
2018-12-25T08:14:07.025Z,292.00
2018-12-25T08:15:07.019Z,320.00
2018-12-25T08:16:07.016Z,328.00
2018-12-25T08:17:06.998Z,312.00
2018-12-25T08:18:06.993Z,372.00
2018-12-25T08:19:06.981Z,364.00
2018-12-25T08:20:06.984Z,376.00
2018-12-25T08:21:06.967Z,352.00
2018-12-25T08:22:06.957Z,268.00
2018-12-25T08:23:06.952Z,212.00
2018-12-25T08:24:06.943Z,184.00
2018-12-25T08:25:06.934Z,184.00
2018-12-25T08:26:06.923Z,196.00
2018-12-25T08:27:06.917Z,216.00
2018-12-25T08:28:06.910Z,256.00
2018-12-25T08:29:06.900Z,212.00
2018-12-25T08:30:06.893Z,208.00
2018-12-25T08:31:08.181Z,200.00
2018-12-25T08:32:06.875Z,200.00
2018-12-25T08:33:06.868Z,248.00
2018-12-25T08:34:06.856Z,288.00
2018-12-25T08:35:06.849Z,312.00
2018-12-25T08:36:06.841Z,328.00
2018-12-25T08:37:06.833Z,312.00
2018-12-25T08:38:06.820Z,260.00
2018-12-25T08:39:06.816Z,252.00
2018-12-25T08:40:06.812Z,292.00
2018-12-25T08:41:06.802Z,312.00
2018-12-25T08:42:06.788Z,268.00
2018-12-25T08:43:06.782Z,212.00
2018-12-25T08:44:06.773Z,192.00
2018-12-25T08:45:06.885Z,188.00
2018-12-25T08:46:06.755Z,196.00
2018-12-25T08:47:06.747Z,220.00
2018-12-25T08:48:06.744Z,240.00
2018-12-25T08:49:06.732Z,264.00
2018-12-25T08:50:06.722Z,248.00
2018-12-25T08:51:06.718Z,220.00
2018-12-25T08:52:06.707Z,244.00
2018-12-25T08:53:06.700Z,272.00
2018-12-25T08:54:06.689Z,292.00
2018-12-25T08:55:06.681Z,336.00
2018-12-25T08:56:06.676Z,324.00
2018-12-25T08:57:06.668Z,344.00
2018-12-25T08:58:06.657Z,416.00
2018-12-25T08:59:06.647Z,552.00
2018-12-25T09:00:06.638Z,524.00
2018-12-25T09:01:06.631Z,468.00
2018-12-25T09:02:06.623Z,464.00
2018-12-25T09:03:06.615Z,436.00
2018-12-25T09:04:06.606Z,396.00
2018-12-25T09:05:06.596Z,368.00
2018-12-25T09:06:06.589Z,352.00
2018-12-25T09:07:06.582Z,360.00
2018-12-25T09:08:06.574Z,384.00
2018-12-25T09:09:06.567Z,440.00
2018-12-25T09:10:06.556Z,440.00
2018-12-25T09:11:06.547Z,456.00
2018-12-25T09:12:06.539Z,468.00
2018-12-25T09:13:06.533Z,448.00
2018-12-25T09:14:06.526Z,376.00
2018-12-25T09:15:06.514Z,360.00
2018-12-25T09:16:06.508Z,384.00
2018-12-25T09:17:06.500Z,400.00
2018-12-25T09:18:06.489Z,440.00
2018-12-25T09:19:06.485Z,456.00
2018-12-25T09:20:06.474Z,428.00
2018-12-25T09:21:06.466Z,376.00
2018-12-25T09:22:06.459Z,348.00
2018-12-25T09:23:06.451Z,368.00
2018-12-25T09:24:06.441Z,388.00
2018-12-25T09:25:06.434Z,400.00
2018-12-25T09:26:06.423Z,424.00
2018-12-25T09:27:06.417Z,432.00
2018-12-25T09:28:06.409Z,428.00
2018-12-25T09:29:06.399Z,412.00
2018-12-25T09:30:06.400Z,400.00
2018-12-25T09:31:06.387Z,416.00
2018-12-25T09:32:06.386Z,448.00
2018-12-25T09:33:06.369Z,468.00
2018-12-25T09:34:06.359Z,488.00
2018-12-25T09:35:06.350Z,496.00
2018-12-25T09:36:06.344Z,500.00
2018-12-25T09:37:06.337Z,468.00
2018-12-25T09:38:06.332Z,432.00
2018-12-25T09:39:06.319Z,424.00
2018-12-25T09:40:06.309Z,408.00
2018-12-25T09:41:06.306Z,400.00
2018-12-25T09:42:06.295Z,396.00
2018-12-25T09:43:06.375Z,400.00
2018-12-25T09:44:06.279Z,400.00
2018-12-25T09:45:06.271Z,364.00
2018-12-25T09:46:06.325Z,324.00
2018-12-25T09:47:06.250Z,328.00
2018-12-25T09:48:13.113Z,324.00
2018-12-25T09:49:06.240Z,328.00
2018-12-25T09:50:06.230Z,340.00
2018-12-25T09:51:06.223Z,348.00
2018-12-25T09:52:06.210Z,360.00
2018-12-25T09:53:06.205Z,372.00
2018-12-25T09:54:06.201Z,392.00
2018-12-25T09:55:06.194Z,396.00
2018-12-25T09:56:06.180Z,420.00
2018-12-25T09:57:06.177Z,416.00
2018-12-25T09:58:06.162Z,388.00
2018-12-25T09:59:06.155Z,404.00
2018-12-25T10:00:06.149Z,432.00
2018-12-25T10:01:06.138Z,452.00
2018-12-25T10:02:06.130Z,436.00
2018-12-25T10:03:06.121Z,440.00
2018-12-25T10:04:06.116Z,444.00
2018-12-25T10:05:06.106Z,420.00
2018-12-25T10:06:06.095Z,412.00
2018-12-25T10:07:06.090Z,412.00
2018-12-25T10:08:06.094Z,392.00
2018-12-25T10:09:06.076Z,388.00
2018-12-25T10:10:06.065Z,420.00
2018-12-25T10:11:06.057Z,468.00
2018-12-25T10:12:06.049Z,484.00
2018-12-25T10:13:06.041Z,508.00
2018-12-25T10:14:06.045Z,528.00
2018-12-25T10:15:06.026Z,556.00
2018-12-25T10:16:06.017Z,528.00
2018-12-25T10:17:06.010Z,540.00
2018-12-25T10:18:06.002Z,564.00
2018-12-25T10:19:05.997Z,564.00
2018-12-25T10:20:05.983Z,564.00
2018-12-25T10:21:05.981Z,640.00
2018-12-25T10:22:05.970Z,728.00
2018-12-25T10:23:05.964Z,748.00
2018-12-25T10:24:05.953Z,752.00
2018-12-25T10:25:05.946Z,748.00
2018-12-25T10:26:05.944Z,680.00
2018-12-25T10:27:05.928Z,704.00
2018-12-25T10:28:05.922Z,648.00
2018-12-25T10:29:05.918Z,576.00
2018-12-25T10:30:05.925Z,596.00
2018-12-25T10:31:05.901Z,532.00
2018-12-25T10:32:05.892Z,512.00
2018-12-25T10:33:05.888Z,480.00
2018-12-25T10:34:05.871Z,480.00
2018-12-25T10:35:05.865Z,516.00
2018-12-25T10:36:05.855Z,620.00
2018-12-25T10:37:05.849Z,680.00
2018-12-25T10:38:05.840Z,692.00
2018-12-25T10:39:05.835Z,688.00
2018-12-25T10:40:05.827Z,628.00
2018-12-25T10:41:05.817Z,592.00
2018-12-25T10:42:05.811Z,544.00
2018-12-25T10:43:05.803Z,504.00
2018-12-25T10:44:05.792Z,608.00
2018-12-25T10:45:05.784Z,880.00
2018-12-25T10:46:05.779Z,912.00
2018-12-25T10:47:05.769Z,744.00
2018-12-25T10:48:05.761Z,688.00
2018-12-25T10:49:05.751Z,740.00
2018-12-25T10:50:05.747Z,844.00
2018-12-25T10:51:05.738Z,816.00
2018-12-25T10:52:11.519Z,824.00
2018-12-25T10:53:05.722Z,784.00
2018-12-25T10:54:05.709Z,712.00
2018-12-25T10:55:05.706Z,656.00
2018-12-25T10:56:05.698Z,580.00
2018-12-25T10:57:05.692Z,524.00
2018-12-25T10:58:05.682Z,564.00
2018-12-25T10:59:05.674Z,564.00
2018-12-25T11:00:05.688Z,524.00
2018-12-25T11:01:05.658Z,480.00
2018-12-25T11:02:05.651Z,536.00
2018-12-25T11:03:05.642Z,488.00
2018-12-25T11:04:05.636Z,468.00
2018-12-25T11:05:05.626Z,504.00
2018-12-25T11:06:05.616Z,616.00
2018-12-25T11:07:05.608Z,508.00
2018-12-25T11:08:05.598Z,404.00
2018-12-25T11:09:05.593Z,468.00
2018-12-25T11:10:05.585Z,436.00
2018-12-25T11:11:05.582Z,472.00
2018-12-25T11:12:05.569Z,492.00
2018-12-25T11:13:05.561Z,500.00
2018-12-25T11:14:05.554Z,448.00
2018-12-25T11:15:05.545Z,476.00
2018-12-25T11:16:05.536Z,628.00
2018-12-25T11:17:05.532Z,920.00
2018-12-25T11:18:05.522Z,1032.00
2018-12-25T11:19:05.512Z,1104.00
2018-12-25T11:20:11.361Z,1276.00
2018-12-25T11:21:05.495Z,1252.00
2018-12-25T11:22:05.490Z,1168.00
2018-12-25T11:23:05.482Z,1232.00
2018-12-25T11:24:05.475Z,1284.00
2018-12-25T11:25:05.464Z,1268.00
2018-12-25T11:26:05.457Z,1120.00
2018-12-25T11:27:05.450Z,1104.00
2018-12-25T11:28:05.442Z,1180.00
2018-12-25T11:29:05.433Z,1256.00
2018-12-25T11:30:05.424Z,1428.00
2018-12-25T11:31:05.417Z,1712.00
2018-12-25T11:32:05.411Z,1528.00
2018-12-25T11:33:05.406Z,1784.00
2018-12-25T11:34:05.393Z,1652.00
2018-12-25T11:35:05.384Z,1496.00
2018-12-25T11:36:05.376Z,1592.00
2018-12-25T11:37:05.369Z,1540.00
2018-12-25T11:38:05.363Z,1592.00
2018-12-25T11:39:05.356Z,1564.00
2018-12-25T11:40:05.351Z,1424.00
2018-12-25T11:41:05.338Z,1276.00
2018-12-25T11:42:05.331Z,1344.00
2018-12-25T11:43:05.320Z,1284.00
2018-12-25T11:44:05.315Z,1104.00
2018-12-25T11:45:05.308Z,984.00
2018-12-25T11:46:05.297Z,988.00
2018-12-25T11:47:05.289Z,1048.00
2018-12-25T11:48:05.284Z,1260.00
2018-12-25T11:49:05.277Z,1028.00
2018-12-25T11:50:05.261Z,956.00
2018-12-25T11:51:05.261Z,840.00
2018-12-25T11:52:05.253Z,840.00
2018-12-25T11:53:05.244Z,948.00
2018-12-25T11:54:05.235Z,1144.00
2018-12-25T11:55:05.227Z,1216.00
2018-12-25T11:56:05.219Z,1152.00
2018-12-25T11:57:05.213Z,1344.00
2018-12-25T11:58:05.204Z,1268.00
2018-12-25T11:59:05.197Z,1340.00
2018-12-25T12:00:05.191Z,1176.00
2018-12-25T12:01:05.182Z,1096.00
2018-12-25T12:02:05.173Z,1076.00
2018-12-25T12:03:05.167Z,984.00
2018-12-25T12:04:05.158Z,952.00
2018-12-25T12:05:05.152Z,856.00
2018-12-25T12:06:05.143Z,780.00
2018-12-25T12:07:05.137Z,796.00
2018-12-25T12:08:05.129Z,820.00
2018-12-25T12:09:05.119Z,752.00
2018-12-25T12:10:05.112Z,680.00
2018-12-25T12:11:05.103Z,700.00
2018-12-25T12:12:05.089Z,720.00
2018-12-25T12:13:05.088Z,688.00
2018-12-25T12:14:05.082Z,680.00
2018-12-25T12:15:05.073Z,724.00
2018-12-25T12:16:05.065Z,836.00
2018-12-25T12:17:05.055Z,912.00
2018-12-25T12:18:05.048Z,1032.00
2018-12-25T12:19:05.042Z,808.00
2018-12-25T12:20:05.034Z,708.00
2018-12-25T12:21:05.027Z,768.00
2018-12-25T12:22:05.016Z,832.00
2018-12-25T12:23:05.009Z,1004.00
2018-12-25T12:24:05.007Z,876.00
2018-12-25T12:25:04.993Z,816.00
2018-12-25T12:26:04.988Z,912.00
2018-12-25T12:27:04.979Z,956.00
2018-12-25T12:28:04.971Z,852.00
2018-12-25T12:29:04.965Z,788.00
2018-12-25T12:30:04.956Z,712.00
2018-12-25T12:31:04.946Z,768.00
2018-12-25T12:32:04.941Z,756.00
2018-12-25T12:33:04.933Z,828.00
2018-12-25T12:34:04.926Z,936.00
2018-12-25T12:35:04.955Z,916.00
2018-12-25T12:36:04.909Z,844.00
2018-12-25T12:37:04.903Z,844.00
2018-12-25T12:38:04.892Z,808.00
2018-12-25T12:39:04.885Z,756.00
2018-12-25T12:40:04.883Z,628.00
2018-12-25T12:41:04.872Z,628.00
2018-12-25T12:42:04.872Z,644.00
2018-12-25T12:43:04.859Z,760.00
2018-12-25T12:44:04.848Z,816.00
2018-12-25T12:45:04.841Z,808.00
2018-12-25T12:46:06.938Z,764.00
2018-12-25T12:47:04.891Z,932.00
2018-12-25T12:48:04.827Z,1004.00
2018-12-25T12:49:04.812Z,1340.00
2018-12-25T12:50:04.806Z,1116.00
2018-12-25T12:51:04.796Z,816.00
2018-12-25T12:52:04.793Z,924.00
2018-12-25T12:53:04.783Z,844.00
2018-12-25T12:54:04.779Z,744.00